sensor_id;sensor_type;location;lat;lon;timestamp;P1;durP1;ratioP1;P2;durP2;ratioP2
66946;SDS011;53853;51.982;5.928;2023-07-24T00:01:15;3.38;;;1.95;;
66946;SDS011;53853;51.982;5.928;2023-07-24T00:03:48;2.10;;;1.52;;
66946;SDS011;53853;51.982;5.928;2023-07-24T00:06:20;2.35;;;1.55;;
66946;SDS011;53853;51.982;5.928;2023-07-24T00:08:50;3.13;;;2.00;;
66946;SDS011;53853;51.982;5.928;2023-07-24T00:11:20;2.20;;;1.58;;
66946;SDS011;53853;51.982;5.928;2023-07-24T00:13:50;4.22;;;2.33;;
66946;SDS011;53853;51.982;5.928;2023-07-24T00:16:20;3.03;;;2.13;;
66946;SDS011;53853;51.982;5.928;2023-07-24T00:18:52;2.28;;;1.42;;
66946;SDS011;53853;51.982;5.928;2023-07-24T00:21:22;3.38;;;1.58;;
66946;SDS011;53853;51.982;5.928;2023-07-24T00:23:52;2.50;;;1.45;;
66946;SDS011;53853;51.982;5.928;2023-07-24T00:26:22;3.75;;;1.52;;
66946;SDS011;53853;51.982;5.928;2023-07-24T00:28:52;2.83;;;1.92;;
66946;SDS011;53853;51.982;5.928;2023-07-24T00:31:22;2.63;;;1.63;;
66946;SDS011;53853;51.982;5.928;2023-07-24T00:33:54;2.80;;;1.50;;
66946;SDS011;53853;51.982;5.928;2023-07-24T00:36:26;2.75;;;1.95;;
66946;SDS011;53853;51.982;5.928;2023-07-24T00:38:56;2.13;;;1.50;;
66946;SDS011;53853;51.982;5.928;2023-07-24T00:41:25;3.67;;;2.33;;
66946;SDS011;53853;51.982;5.928;2023-07-24T00:43:55;3.45;;;1.73;;
66946;SDS011;53853;51.982;5.928;2023-07-24T00:46:25;2.22;;;1.58;;
66946;SDS011;53853;51.982;5.928;2023-07-24T00:49:00;2.10;;;1.50;;
66946;SDS011;53853;51.982;5.928;2023-07-24T00:51:33;3.00;;;1.90;;
66946;SDS011;53853;51.982;5.928;2023-07-24T00:54:03;2.45;;;1.70;;
66946;SDS011;53853;51.982;5.928;2023-07-24T00:56:34;2.20;;;1.52;;
66946;SDS011;53853;51.982;5.928;2023-07-24T00:59:04;2.95;;;2.03;;
66946;SDS011;53853;51.982;5.928;2023-07-24T01:01:35;3.03;;;1.70;;
66946;SDS011;53853;51.982;5.928;2023-07-24T01:04:08;2.10;;;1.60;;
66946;SDS011;53853;51.982;5.928;2023-07-24T01:06:38;2.30;;;1.63;;
66946;SDS011;53853;51.982;5.928;2023-07-24T01:09:08;3.17;;;1.80;;
66946;SDS011;53853;51.982;5.928;2023-07-24T01:11:40;4.63;;;1.42;;
66946;SDS011;53853;51.982;5.928;2023-07-24T01:14:15;3.05;;;1.73;;
66946;SDS011;53853;51.982;5.928;2023-07-24T01:16:50;3.20;;;1.88;;
66946;SDS011;53853;51.982;5.928;2023-07-24T01:19:33;3.42;;;1.83;;
66946;SDS011;53853;51.982;5.928;2023-07-24T01:22:10;1.75;;;1.33;;
66946;SDS011;53853;51.982;5.928;2023-07-24T01:24:57;3.28;;;1.70;;
66946;SDS011;53853;51.982;5.928;2023-07-24T01:27:36;2.92;;;2.08;;
66946;SDS011;53853;51.982;5.928;2023-07-24T01:30:10;2.35;;;1.70;;
66946;SDS011;53853;51.982;5.928;2023-07-24T01:32:42;2.80;;;1.58;;
66946;SDS011;53853;51.982;5.928;2023-07-24T01:35:12;3.10;;;2.17;;
66946;SDS011;53853;51.982;5.928;2023-07-24T01:37:43;2.80;;;1.88;;
66946;SDS011;53853;51.982;5.928;2023-07-24T01:40:15;3.05;;;2.25;;
66946;SDS011;53853;51.982;5.928;2023-07-24T01:42:47;3.47;;;2.33;;
66946;SDS011;53853;51.982;5.928;2023-07-24T01:45:18;4.18;;;2.78;;
66946;SDS011;53853;51.982;5.928;2023-07-24T01:47:48;3.38;;;2.30;;
66946;SDS011;53853;51.982;5.928;2023-07-24T01:50:18;3.05;;;1.80;;
66946;SDS011;53853;51.982;5.928;2023-07-24T01:52:48;3.45;;;2.42;;
66946;SDS011;53853;51.982;5.928;2023-07-24T01:55:18;3.55;;;2.47;;
66946;SDS011;53853;51.982;5.928;2023-07-24T01:57:50;3.10;;;2.42;;
66946;SDS011;53853;51.982;5.928;2023-07-24T02:00:20;3.67;;;2.10;;
66946;SDS011;53853;51.982;5.928;2023-07-24T02:02:56;4.05;;;3.42;;
66946;SDS011;53853;51.982;5.928;2023-07-24T02:05:26;3.40;;;2.33;;
66946;SDS011;53853;51.982;5.928;2023-07-24T02:07:56;5.50;;;3.08;;
66946;SDS011;53853;51.982;5.928;2023-07-24T02:10:26;4.03;;;3.05;;
66946;SDS011;53853;51.982;5.928;2023-07-24T02:12:59;4.43;;;2.63;;
66946;SDS011;53853;51.982;5.928;2023-07-24T02:15:28;4.85;;;3.10;;
66946;SDS011;53853;51.982;5.928;2023-07-24T02:17:58;4.00;;;2.65;;
66946;SDS011;53853;51.982;5.928;2023-07-24T02:20:29;3.78;;;3.00;;
66946;SDS011;53853;51.982;5.928;2023-07-24T02:22:59;3.10;;;2.25;;
66946;SDS011;53853;51.982;5.928;2023-07-24T02:25:29;3.50;;;2.83;;
66946;SDS011;53853;51.982;5.928;2023-07-24T02:28:01;3.35;;;2.67;;
66946;SDS011;53853;51.982;5.928;2023-07-24T02:30:32;3.10;;;2.35;;
66946;SDS011;53853;51.982;5.928;2023-07-24T02:35:38;3.22;;;2.60;;
66946;SDS011;53853;51.982;5.928;2023-07-24T02:38:08;3.38;;;2.53;;
66946;SDS011;53853;51.982;5.928;2023-07-24T02:40:40;3.90;;;3.00;;
66946;SDS011;53853;51.982;5.928;2023-07-24T02:43:12;4.55;;;3.13;;
66946;SDS011;53853;51.982;5.928;2023-07-24T02:45:42;3.78;;;2.63;;
66946;SDS011;53853;51.982;5.928;2023-07-24T02:48:12;2.95;;;2.20;;
66946;SDS011;53853;51.982;5.928;2023-07-24T02:50:42;2.85;;;1.75;;
66946;SDS011;53853;51.982;5.928;2023-07-24T02:53:12;4.05;;;2.42;;
66946;SDS011;53853;51.982;5.928;2023-07-24T02:55:42;2.70;;;1.88;;
66946;SDS011;53853;51.982;5.928;2023-07-24T02:58:15;4.25;;;2.50;;
66946;SDS011;53853;51.982;5.928;2023-07-24T03:00:45;3.47;;;2.70;;
66946;SDS011;53853;51.982;5.928;2023-07-24T03:03:15;3.33;;;2.53;;
66946;SDS011;53853;51.982;5.928;2023-07-24T03:05:45;3.65;;;3.08;;
66946;SDS011;53853;51.982;5.928;2023-07-24T03:08:14;5.07;;;3.38;;
66946;SDS011;53853;51.982;5.928;2023-07-24T03:10:44;3.58;;;2.88;;
66946;SDS011;53853;51.982;5.928;2023-07-24T03:13:17;3.20;;;2.45;;
66946;SDS011;53853;51.982;5.928;2023-07-24T03:15:51;3.55;;;2.47;;
66946;SDS011;53853;51.982;5.928;2023-07-24T03:18:21;5.20;;;2.58;;
66946;SDS011;53853;51.982;5.928;2023-07-24T03:20:51;5.93;;;3.75;;
66946;SDS011;53853;51.982;5.928;2023-07-24T03:23:21;2.70;;;2.15;;
66946;SDS011;53853;51.982;5.928;2023-07-24T03:25:51;4.47;;;3.58;;
66946;SDS011;53853;51.982;5.928;2023-07-24T03:28:24;3.90;;;2.70;;
66946;SDS011;53853;51.982;5.928;2023-07-24T03:30:54;3.38;;;2.53;;
66946;SDS011;53853;51.982;5.928;2023-07-24T03:33:24;4.63;;;3.67;;
66946;SDS011;53853;51.982;5.928;2023-07-24T03:35:54;3.65;;;2.50;;
66946;SDS011;53853;51.982;5.928;2023-07-24T03:38:24;3.35;;;2.78;;
66946;SDS011;53853;51.982;5.928;2023-07-24T03:40:54;5.30;;;3.92;;
66946;SDS011;53853;51.982;5.928;2023-07-24T03:43:26;4.82;;;3.08;;
66946;SDS011;53853;51.982;5.928;2023-07-24T03:45:56;4.22;;;3.75;;
66946;SDS011;53853;51.982;5.928;2023-07-24T03:48:26;3.60;;;2.97;;
66946;SDS011;53853;51.982;5.928;2023-07-24T03:50:59;3.92;;;3.22;;
66946;SDS011;53853;51.982;5.928;2023-07-24T03:53:29;4.93;;;3.60;;
66946;SDS011;53853;51.982;5.928;2023-07-24T03:55:59;3.53;;;2.88;;
66946;SDS011;53853;51.982;5.928;2023-07-24T03:58:31;4.28;;;2.90;;
66946;SDS011;53853;51.982;5.928;2023-07-24T04:01:01;4.03;;;3.08;;
66946;SDS011;53853;51.982;5.928;2023-07-24T04:03:31;5.55;;;4.82;;
66946;SDS011;53853;51.982;5.928;2023-07-24T04:06:01;4.15;;;3.60;;
66946;SDS011;53853;51.982;5.928;2023-07-24T04:08:31;4.78;;;4.05;;
66946;SDS011;53853;51.982;5.928;2023-07-24T04:11:01;4.18;;;3.40;;
66946;SDS011;53853;51.982;5.928;2023-07-24T04:13:34;5.25;;;3.10;;
66946;SDS011;53853;51.982;5.928;2023-07-24T04:16:04;5.30;;;4.15;;
66946;SDS011;53853;51.982;5.928;2023-07-24T04:18:34;4.40;;;2.70;;
66946;SDS011;53853;51.982;5.928;2023-07-24T04:21:04;4.95;;;3.42;;
66946;SDS011;53853;51.982;5.928;2023-07-24T04:23:34;4.40;;;3.75;;
66946;SDS011;53853;51.982;5.928;2023-07-24T04:26:04;3.67;;;3.00;;
66946;SDS011;53853;51.982;5.928;2023-07-24T04:28:36;4.13;;;3.67;;
66946;SDS011;53853;51.982;5.928;2023-07-24T04:31:06;4.30;;;3.50;;
66946;SDS011;53853;51.982;5.928;2023-07-24T04:33:36;3.80;;;3.33;;
66946;SDS011;53853;51.982;5.928;2023-07-24T04:36:05;3.53;;;3.05;;
66946;SDS011;53853;51.982;5.928;2023-07-24T04:38:35;5.78;;;4.00;;
66946;SDS011;53853;51.982;5.928;2023-07-24T04:41:05;3.55;;;2.95;;
66946;SDS011;53853;51.982;5.928;2023-07-24T04:43:38;4.60;;;3.70;;
66946;SDS011;53853;51.982;5.928;2023-07-24T04:46:08;3.50;;;2.60;;
66946;SDS011;53853;51.982;5.928;2023-07-24T04:48:37;4.28;;;3.42;;
66946;SDS011;53853;51.982;5.928;2023-07-24T04:51:07;3.40;;;2.38;;
66946;SDS011;53853;51.982;5.928;2023-07-24T04:53:37;3.15;;;2.50;;
66946;SDS011;53853;51.982;5.928;2023-07-24T04:56:07;3.08;;;2.53;;
66946;SDS011;53853;51.982;5.928;2023-07-24T04:58:40;5.15;;;4.50;;
66946;SDS011;53853;51.982;5.928;2023-07-24T05:01:09;4.70;;;4.20;;
66946;SDS011;53853;51.982;5.928;2023-07-24T05:03:39;5.10;;;4.30;;
66946;SDS011;53853;51.982;5.928;2023-07-24T05:06:09;4.10;;;3.30;;
66946;SDS011;53853;51.982;5.928;2023-07-24T05:08:39;4.65;;;3.92;;
66946;SDS011;53853;51.982;5.928;2023-07-24T05:11:09;5.75;;;4.15;;
66946;SDS011;53853;51.982;5.928;2023-07-24T05:13:41;5.63;;;4.65;;
66946;SDS011;53853;51.982;5.928;2023-07-24T05:16:11;7.30;;;4.47;;
66946;SDS011;53853;51.982;5.928;2023-07-24T05:18:41;5.07;;;4.50;;
66946;SDS011;53853;51.982;5.928;2023-07-24T05:21:11;5.90;;;4.72;;
66946;SDS011;53853;51.982;5.928;2023-07-24T05:23:41;7.82;;;4.68;;
66946;SDS011;53853;51.982;5.928;2023-07-24T05:26:10;5.40;;;4.30;;
66946;SDS011;53853;51.982;5.928;2023-07-24T05:28:43;5.85;;;5.20;;
66946;SDS011;53853;51.982;5.928;2023-07-24T05:31:13;5.32;;;4.82;;
66946;SDS011;53853;51.982;5.928;2023-07-24T05:33:43;7.13;;;4.40;;
66946;SDS011;53853;51.982;5.928;2023-07-24T05:36:13;4.97;;;4.00;;
66946;SDS011;53853;51.982;5.928;2023-07-24T05:38:43;5.57;;;5.00;;
66946;SDS011;53853;51.982;5.928;2023-07-24T05:41:13;6.50;;;5.90;;
66946;SDS011;53853;51.982;5.928;2023-07-24T05:43:45;4.38;;;3.67;;
66946;SDS011;53853;51.982;5.928;2023-07-24T05:46:16;4.13;;;3.45;;
66946;SDS011;53853;51.982;5.928;2023-07-24T05:48:46;6.07;;;5.47;;
66946;SDS011;53853;51.982;5.928;2023-07-24T05:51:15;6.82;;;6.03;;
66946;SDS011;53853;51.982;5.928;2023-07-24T05:53:49;6.97;;;6.30;;
66946;SDS011;53853;51.982;5.928;2023-07-24T05:56:18;4.95;;;4.03;;
66946;SDS011;53853;51.982;5.928;2023-07-24T05:58:51;5.18;;;4.00;;
66946;SDS011;53853;51.982;5.928;2023-07-24T06:01:21;5.47;;;4.88;;
66946;SDS011;53853;51.982;5.928;2023-07-24T06:03:51;6.15;;;5.20;;
66946;SDS011;53853;51.982;5.928;2023-07-24T06:06:21;6.05;;;5.40;;
66946;SDS011;53853;51.982;5.928;2023-07-24T06:08:51;6.15;;;5.53;;
66946;SDS011;53853;51.982;5.928;2023-07-24T06:11:21;7.75;;;6.57;;
66946;SDS011;53853;51.982;5.928;2023-07-24T06:13:55;8.05;;;5.70;;
66946;SDS011;53853;51.982;5.928;2023-07-24T06:16:25;5.50;;;4.22;;
66946;SDS011;53853;51.982;5.928;2023-07-24T06:18:55;9.15;;;6.72;;
66946;SDS011;53853;51.982;5.928;2023-07-24T06:21:24;10.25;;;7.35;;
66946;SDS011;53853;51.982;5.928;2023-07-24T06:23:54;6.22;;;4.85;;
66946;SDS011;53853;51.982;5.928;2023-07-24T06:26:24;6.57;;;5.25;;
66946;SDS011;53853;51.982;5.928;2023-07-24T06:29:00;6.50;;;5.82;;
66946;SDS011;53853;51.982;5.928;2023-07-24T06:31:48;6.97;;;6.07;;
66946;SDS011;53853;51.982;5.928;2023-07-24T06:34:18;5.47;;;4.80;;
66946;SDS011;53853;51.982;5.928;2023-07-24T06:36:48;6.40;;;5.80;;
66946;SDS011;53853;51.982;5.928;2023-07-24T06:39:18;8.00;;;7.07;;
66946;SDS011;53853;51.982;5.928;2023-07-24T06:41:48;7.53;;;6.72;;
66946;SDS011;53853;51.982;5.928;2023-07-24T06:44:22;6.38;;;5.68;;
66946;SDS011;53853;51.982;5.928;2023-07-24T06:46:52;6.97;;;6.25;;
66946;SDS011;53853;51.982;5.928;2023-07-24T06:49:22;6.95;;;6.25;;
66946;SDS011;53853;51.982;5.928;2023-07-24T06:51:52;8.82;;;7.03;;
66946;SDS011;53853;51.982;5.928;2023-07-24T06:54:22;8.40;;;7.13;;
66946;SDS011;53853;51.982;5.928;2023-07-24T06:56:51;6.60;;;5.65;;
66946;SDS011;53853;51.982;5.928;2023-07-24T06:59:24;8.18;;;6.63;;
66946;SDS011;53853;51.982;5.928;2023-07-24T07:01:54;9.30;;;8.40;;
66946;SDS011;53853;51.982;5.928;2023-07-24T07:04:24;8.73;;;7.78;;
66946;SDS011;53853;51.982;5.928;2023-07-24T07:06:54;8.60;;;6.85;;
66946;SDS011;53853;51.982;5.928;2023-07-24T07:09:24;9.55;;;8.55;;
66946;SDS011;53853;51.982;5.928;2023-07-24T07:11:54;7.82;;;7.03;;
66946;SDS011;53853;51.982;5.928;2023-07-24T07:14:26;7.93;;;6.60;;
66946;SDS011;53853;51.982;5.928;2023-07-24T07:16:56;7.85;;;7.05;;
66946;SDS011;53853;51.982;5.928;2023-07-24T07:19:26;7.85;;;6.88;;
66946;SDS011;53853;51.982;5.928;2023-07-24T07:21:56;7.85;;;7.00;;
66946;SDS011;53853;51.982;5.928;2023-07-24T07:24:26;9.13;;;8.07;;
66946;SDS011;53853;51.982;5.928;2023-07-24T07:26:56;9.30;;;8.35;;
66946;SDS011;53853;51.982;5.928;2023-07-24T07:29:29;8.98;;;8.07;;
66946;SDS011;53853;51.982;5.928;2023-07-24T07:31:59;10.68;;;8.85;;
66946;SDS011;53853;51.982;5.928;2023-07-24T07:34:29;10.40;;;8.98;;
66946;SDS011;53853;51.982;5.928;2023-07-24T07:37:00;9.70;;;7.95;;
66946;SDS011;53853;51.982;5.928;2023-07-24T07:39:30;8.68;;;7.85;;
66946;SDS011;53853;51.982;5.928;2023-07-24T07:42:00;9.68;;;8.20;;
66946;SDS011;53853;51.982;5.928;2023-07-24T07:44:33;7.95;;;6.07;;
66946;SDS011;53853;51.982;5.928;2023-07-24T07:47:03;8.82;;;7.53;;
66946;SDS011;53853;51.982;5.928;2023-07-24T07:49:33;9.35;;;8.13;;
66946;SDS011;53853;51.982;5.928;2023-07-24T07:52:04;11.20;;;8.95;;
66946;SDS011;53853;51.982;5.928;2023-07-24T07:54:34;8.93;;;7.18;;
66946;SDS011;53853;51.982;5.928;2023-07-24T07:57:04;10.50;;;8.75;;
66946;SDS011;53853;51.982;5.928;2023-07-24T07:59:37;10.10;;;8.80;;
66946;SDS011;53853;51.982;5.928;2023-07-24T08:02:07;11.32;;;9.25;;
66946;SDS011;53853;51.982;5.928;2023-07-24T08:04:37;8.55;;;7.65;;
66946;SDS011;53853;51.982;5.928;2023-07-24T08:07:06;12.85;;;9.90;;
66946;SDS011;53853;51.982;5.928;2023-07-24T08:09:36;8.68;;;7.47;;
66946;SDS011;53853;51.982;5.928;2023-07-24T08:12:07;11.43;;;10.23;;
66946;SDS011;53853;51.982;5.928;2023-07-24T08:14:39;12.57;;;10.50;;
66946;SDS011;53853;51.982;5.928;2023-07-24T08:17:09;12.10;;;10.45;;
66946;SDS011;53853;51.982;5.928;2023-07-24T08:19:39;11.25;;;9.23;;
66946;SDS011;53853;51.982;5.928;2023-07-24T08:22:09;7.90;;;7.00;;
66946;SDS011;53853;51.982;5.928;2023-07-24T08:24:40;7.70;;;7.00;;
66946;SDS011;53853;51.982;5.928;2023-07-24T08:27:10;9.90;;;7.63;;
66946;SDS011;53853;51.982;5.928;2023-07-24T08:29:43;10.88;;;9.77;;
66946;SDS011;53853;51.982;5.928;2023-07-24T08:32:13;8.98;;;8.10;;
66946;SDS011;53853;51.982;5.928;2023-07-24T08:34:42;8.60;;;7.70;;
66946;SDS011;53853;51.982;5.928;2023-07-24T08:37:12;12.32;;;11.07;;
66946;SDS011;53853;51.982;5.928;2023-07-24T08:39:43;10.15;;;8.88;;
66946;SDS011;53853;51.982;5.928;2023-07-24T08:42:12;9.55;;;8.60;;
66946;SDS011;53853;51.982;5.928;2023-07-24T08:44:45;11.05;;;9.80;;
66946;SDS011;53853;51.982;5.928;2023-07-24T08:47:15;9.57;;;8.60;;
66946;SDS011;53853;51.982;5.928;2023-07-24T08:49:46;10.48;;;8.73;;
66946;SDS011;53853;51.982;5.928;2023-07-24T08:52:17;10.23;;;8.23;;
66946;SDS011;53853;51.982;5.928;2023-07-24T08:54:47;8.90;;;8.05;;
66946;SDS011;53853;51.982;5.928;2023-07-24T08:57:18;9.00;;;7.55;;
66946;SDS011;53853;51.982;5.928;2023-07-24T08:59:52;10.48;;;7.53;;
66946;SDS011;53853;51.982;5.928;2023-07-24T09:02:21;7.43;;;6.68;;
66946;SDS011;53853;51.982;5.928;2023-07-24T09:04:51;8.13;;;7.32;;
66946;SDS011;53853;51.982;5.928;2023-07-24T09:07:21;10.38;;;7.90;;
66946;SDS011;53853;51.982;5.928;2023-07-24T09:09:51;8.50;;;6.80;;
66946;SDS011;53853;51.982;5.928;2023-07-24T09:12:21;9.57;;;8.65;;
66946;SDS011;53853;51.982;5.928;2023-07-24T09:15:03;7.50;;;5.88;;
66946;SDS011;53853;51.982;5.928;2023-07-24T09:17:34;6.80;;;5.88;;
66946;SDS011;53853;51.982;5.928;2023-07-24T09:20:04;6.97;;;6.28;;
66946;SDS011;53853;51.982;5.928;2023-07-24T09:22:35;5.47;;;4.93;;
66946;SDS011;53853;51.982;5.928;2023-07-24T09:25:16;7.07;;;6.38;;
66946;SDS011;53853;51.982;5.928;2023-07-24T09:27:45;6.28;;;4.55;;
66946;SDS011;53853;51.982;5.928;2023-07-24T09:30:18;9.52;;;7.00;;
66946;SDS011;53853;51.982;5.928;2023-07-24T09:35:20;9.80;;;8.80;;
66946;SDS011;53853;51.982;5.928;2023-07-24T09:38:01;6.57;;;5.47;;
66946;SDS011;53853;51.982;5.928;2023-07-24T09:40:38;8.40;;;7.50;;
66946;SDS011;53853;51.982;5.928;2023-07-24T09:43:16;6.10;;;5.50;;
66946;SDS011;53853;51.982;5.928;2023-07-24T09:45:49;6.40;;;5.80;;
66946;SDS011;53853;51.982;5.928;2023-07-24T09:48:20;6.25;;;5.63;;
66946;SDS011;53853;51.982;5.928;2023-07-24T09:50:52;8.00;;;6.78;;
66946;SDS011;53853;51.982;5.928;2023-07-24T09:53:24;6.93;;;5.47;;
66946;SDS011;53853;51.982;5.928;2023-07-24T09:56:02;8.43;;;5.72;;
66946;SDS011;53853;51.982;5.928;2023-07-24T09:58:33;5.55;;;4.90;;
66946;SDS011;53853;51.982;5.928;2023-07-24T10:01:07;9.52;;;7.00;;
66946;SDS011;53853;51.982;5.928;2023-07-24T10:03:38;7.53;;;6.18;;
66946;SDS011;53853;51.982;5.928;2023-07-24T10:06:09;8.05;;;6.78;;
66946;SDS011;53853;51.982;5.928;2023-07-24T10:08:40;8.55;;;5.68;;
66946;SDS011;53853;51.982;5.928;2023-07-24T10:11:11;5.22;;;4.40;;
66946;SDS011;53853;51.982;5.928;2023-07-24T10:13:42;10.82;;;7.07;;
66946;SDS011;53853;51.982;5.928;2023-07-24T10:16:16;9.45;;;6.75;;
66946;SDS011;53853;51.982;5.928;2023-07-24T10:18:46;7.75;;;6.15;;
66946;SDS011;53853;51.982;5.928;2023-07-24T10:21:16;10.18;;;6.78;;
66946;SDS011;53853;51.982;5.928;2023-07-24T10:23:46;6.97;;;5.00;;
66946;SDS011;53853;51.982;5.928;2023-07-24T10:26:16;6.60;;;5.47;;
66946;SDS011;53853;51.982;5.928;2023-07-24T10:28:52;8.10;;;6.13;;
66946;SDS011;53853;51.982;5.928;2023-07-24T10:31:25;8.45;;;6.47;;
66946;SDS011;53853;51.982;5.928;2023-07-24T10:33:59;10.15;;;6.53;;
66946;SDS011;53853;51.982;5.928;2023-07-24T10:36:33;6.95;;;5.85;;
66946;SDS011;53853;51.982;5.928;2023-07-24T10:39:12;10.82;;;7.85;;
66946;SDS011;53853;51.982;5.928;2023-07-24T10:41:44;6.65;;;4.65;;
66946;SDS011;53853;51.982;5.928;2023-07-24T10:44:14;8.27;;;5.90;;
66946;SDS011;53853;51.982;5.928;2023-07-24T10:46:47;7.97;;;6.78;;
66946;SDS011;53853;51.982;5.928;2023-07-24T10:49:20;8.40;;;6.25;;
66946;SDS011;53853;51.982;5.928;2023-07-24T10:51:54;7.45;;;6.00;;
66946;SDS011;53853;51.982;5.928;2023-07-24T10:56:58;5.53;;;3.97;;
66946;SDS011;53853;51.982;5.928;2023-07-24T10:59:38;7.63;;;5.43;;
66946;SDS011;53853;51.982;5.928;2023-07-24T11:02:10;7.32;;;5.82;;
66946;SDS011;53853;51.982;5.928;2023-07-24T11:04:40;8.25;;;7.30;;
66946;SDS011;53853;51.982;5.928;2023-07-24T11:07:10;8.30;;;5.88;;
66946;SDS011;53853;51.982;5.928;2023-07-24T11:09:40;7.78;;;5.95;;
66946;SDS011;53853;51.982;5.928;2023-07-24T11:12:12;6.82;;;5.75;;
66946;SDS011;53853;51.982;5.928;2023-07-24T11:14:46;8.60;;;5.97;;
66946;SDS011;53853;51.982;5.928;2023-07-24T11:17:19;7.88;;;6.28;;
66946;SDS011;53853;51.982;5.928;2023-07-24T11:19:50;6.65;;;5.97;;
66946;SDS011;53853;51.982;5.928;2023-07-24T11:22:21;7.50;;;5.65;;
66946;SDS011;53853;51.982;5.928;2023-07-24T11:24:52;6.70;;;5.77;;
66946;SDS011;53853;51.982;5.928;2023-07-24T11:27:25;8.47;;;6.87;;
66946;SDS011;53853;51.982;5.928;2023-07-24T11:29:55;8.32;;;6.80;;
66946;SDS011;53853;51.982;5.928;2023-07-24T11:32:28;8.73;;;6.60;;
66946;SDS011;53853;51.982;5.928;2023-07-24T11:34:58;7.10;;;5.90;;
66946;SDS011;53853;51.982;5.928;2023-07-24T11:37:29;9.63;;;7.13;;
66946;SDS011;53853;51.982;5.928;2023-07-24T11:40:00;6.60;;;5.63;;
66946;SDS011;53853;51.982;5.928;2023-07-24T11:42:38;7.68;;;6.70;;
66946;SDS011;53853;51.982;5.928;2023-07-24T11:45:09;6.65;;;5.68;;
66946;SDS011;53853;51.982;5.928;2023-07-24T11:47:46;6.28;;;4.13;;
66946;SDS011;53853;51.982;5.928;2023-07-24T11:50:19;7.93;;;5.60;;
66946;SDS011;53853;51.982;5.928;2023-07-24T11:52:50;9.27;;;7.05;;
66946;SDS011;53853;51.982;5.928;2023-07-24T11:55:29;7.00;;;6.10;;
66946;SDS011;53853;51.982;5.928;2023-07-24T11:58:01;9.20;;;6.88;;
66946;SDS011;53853;51.982;5.928;2023-07-24T12:00:33;10.75;;;6.97;;
66946;SDS011;53853;51.982;5.928;2023-07-24T12:03:06;8.32;;;7.28;;
66946;SDS011;53853;51.982;5.928;2023-07-24T12:05:39;8.55;;;6.72;;
66946;SDS011;53853;51.982;5.928;2023-07-24T12:08:10;9.80;;;7.15;;
66946;SDS011;53853;51.982;5.928;2023-07-24T12:10:43;7.65;;;6.03;;
66946;SDS011;53853;51.982;5.928;2023-07-24T12:13:14;8.18;;;6.43;;
66946;SDS011;53853;51.982;5.928;2023-07-24T12:15:44;7.47;;;5.70;;
66946;SDS011;53853;51.982;5.928;2023-07-24T12:18:16;6.45;;;5.30;;
66946;SDS011;53853;51.982;5.928;2023-07-24T12:20:46;6.35;;;5.20;;
66946;SDS011;53853;51.982;5.928;2023-07-24T12:23:16;4.63;;;3.13;;
66946;SDS011;53853;51.982;5.928;2023-07-24T12:25:47;8.20;;;5.38;;
66946;SDS011;53853;51.982;5.928;2023-07-24T12:28:17;8.75;;;5.47;;
66946;SDS011;53853;51.982;5.928;2023-07-24T12:30:47;7.72;;;5.75;;
66946;SDS011;53853;51.982;5.928;2023-07-24T12:33:19;8.70;;;4.18;;
66946;SDS011;53853;51.982;5.928;2023-07-24T12:35:49;6.25;;;4.95;;
66946;SDS011;53853;51.982;5.928;2023-07-24T12:38:20;6.13;;;4.30;;
66946;SDS011;53853;51.982;5.928;2023-07-24T12:40:50;6.57;;;4.70;;
66946;SDS011;53853;51.982;5.928;2023-07-24T12:43:19;5.25;;;3.78;;
66946;SDS011;53853;51.982;5.928;2023-07-24T12:45:49;7.43;;;4.53;;
66946;SDS011;53853;51.982;5.928;2023-07-24T12:48:22;7.13;;;5.25;;
66946;SDS011;53853;51.982;5.928;2023-07-24T12:50:52;5.90;;;3.58;;
66946;SDS011;53853;51.982;5.928;2023-07-24T12:53:23;7.50;;;4.97;;
66946;SDS011;53853;51.982;5.928;2023-07-24T12:55:53;9.27;;;6.85;;
66946;SDS011;53853;51.982;5.928;2023-07-24T12:58:23;8.25;;;5.50;;
66946;SDS011;53853;51.982;5.928;2023-07-24T13:00:53;6.95;;;5.35;;
66946;SDS011;53853;51.982;5.928;2023-07-24T13:03:26;5.93;;;4.78;;
66946;SDS011;53853;51.982;5.928;2023-07-24T13:05:56;8.38;;;5.30;;
66946;SDS011;53853;51.982;5.928;2023-07-24T13:08:26;9.52;;;6.35;;
66946;SDS011;53853;51.982;5.928;2023-07-24T13:10:56;7.38;;;5.28;;
66946;SDS011;53853;51.982;5.928;2023-07-24T13:13:26;7.82;;;4.25;;
66946;SDS011;53853;51.982;5.928;2023-07-24T13:15:56;4.43;;;3.20;;
66946;SDS011;53853;51.982;5.928;2023-07-24T13:18:28;4.78;;;2.90;;
66946;SDS011;53853;51.982;5.928;2023-07-24T13:20:58;6.85;;;3.55;;
66946;SDS011;53853;51.982;5.928;2023-07-24T13:23:28;5.13;;;3.20;;
66946;SDS011;53853;51.982;5.928;2023-07-24T13:25:58;5.10;;;2.67;;
66946;SDS011;53853;51.982;5.928;2023-07-24T13:28:28;4.85;;;2.53;;
66946;SDS011;53853;51.982;5.928;2023-07-24T13:30:58;3.35;;;2.45;;
66946;SDS011;53853;51.982;5.928;2023-07-24T13:33:41;3.72;;;2.78;;
66946;SDS011;53853;51.982;5.928;2023-07-24T13:36:11;6.90;;;3.30;;
66946;SDS011;53853;51.982;5.928;2023-07-24T13:38:41;4.70;;;3.45;;
66946;SDS011;53853;51.982;5.928;2023-07-24T13:41:11;5.80;;;3.42;;
66946;SDS011;53853;51.982;5.928;2023-07-24T13:43:41;4.97;;;2.63;;
66946;SDS011;53853;51.982;5.928;2023-07-24T13:46:11;5.72;;;2.72;;
66946;SDS011;53853;51.982;5.928;2023-07-24T13:48:43;6.05;;;3.97;;
66946;SDS011;53853;51.982;5.928;2023-07-24T13:51:13;3.83;;;2.80;;
66946;SDS011;53853;51.982;5.928;2023-07-24T13:53:43;4.53;;;3.08;;
66946;SDS011;53853;51.982;5.928;2023-07-24T13:56:17;6.72;;;3.55;;
66946;SDS011;53853;51.982;5.928;2023-07-24T13:58:49;4.22;;;2.95;;
66946;SDS011;53853;51.982;5.928;2023-07-24T14:01:18;5.80;;;3.78;;
66946;SDS011;53853;51.982;5.928;2023-07-24T14:03:51;4.78;;;3.08;;
66946;SDS011;53853;51.982;5.928;2023-07-24T14:06:21;7.22;;;3.90;;
66946;SDS011;53853;51.982;5.928;2023-07-24T14:08:51;4.68;;;3.78;;
66946;SDS011;53853;51.982;5.928;2023-07-24T14:11:21;5.72;;;4.97;;
66946;SDS011;53853;51.982;5.928;2023-07-24T14:13:53;5.85;;;3.72;;
66946;SDS011;53853;51.982;5.928;2023-07-24T14:16:23;7.50;;;3.67;;
66946;SDS011;53853;51.982;5.928;2023-07-24T14:18:55;5.53;;;3.50;;
66946;SDS011;53853;51.982;5.928;2023-07-24T14:21:25;6.18;;;4.30;;
66946;SDS011;53853;51.982;5.928;2023-07-24T14:23:55;9.07;;;4.32;;
66946;SDS011;53853;51.982;5.928;2023-07-24T14:26:25;7.82;;;3.67;;
66946;SDS011;53853;51.982;5.928;2023-07-24T14:28:55;6.25;;;3.75;;
66946;SDS011;53853;51.982;5.928;2023-07-24T14:31:26;5.28;;;3.67;;
66946;SDS011;53853;51.982;5.928;2023-07-24T14:33:59;5.68;;;4.10;;
66946;SDS011;53853;51.982;5.928;2023-07-24T14:36:29;5.82;;;4.25;;
66946;SDS011;53853;51.982;5.928;2023-07-24T14:39:02;6.57;;;3.80;;
66946;SDS011;53853;51.982;5.928;2023-07-24T14:41:34;8.40;;;4.72;;
66946;SDS011;53853;51.982;5.928;2023-07-24T14:44:04;5.68;;;4.40;;
66946;SDS011;53853;51.982;5.928;2023-07-24T14:46:34;5.53;;;3.58;;
66946;SDS011;53853;51.982;5.928;2023-07-24T14:49:06;4.45;;;3.47;;
66946;SDS011;53853;51.982;5.928;2023-07-24T14:51:37;6.80;;;4.68;;
66946;SDS011;53853;51.982;5.928;2023-07-24T14:54:07;4.45;;;3.08;;
66946;SDS011;53853;51.982;5.928;2023-07-24T14:56:37;6.80;;;4.53;;
66946;SDS011;53853;51.982;5.928;2023-07-24T14:59:07;6.00;;;3.90;;
66946;SDS011;53853;51.982;5.928;2023-07-24T15:01:37;7.03;;;4.88;;
66946;SDS011;53853;51.982;5.928;2023-07-24T15:04:09;5.05;;;3.38;;
66946;SDS011;53853;51.982;5.928;2023-07-24T15:06:39;5.45;;;3.90;;
66946;SDS011;53853;51.982;5.928;2023-07-24T15:09:09;5.45;;;3.40;;
66946;SDS011;53853;51.982;5.928;2023-07-24T15:11:39;6.38;;;3.42;;
66946;SDS011;53853;51.982;5.928;2023-07-24T15:14:09;5.93;;;4.78;;
66946;SDS011;53853;51.982;5.928;2023-07-24T15:16:39;4.07;;;3.35;;